ROMMA est une association bénévole à but non lucratif. Votre soutien est indispensable : ADHERER à ROMMA ou FAIRE un DON

Voiron - (38, Isère)

Voironnais (300 m)   Longitude: 05° 35' E   Latitude: 45° 23' N Station partenaire n°109
 

Détail journalier du     <<     >>

Température Precipitation Humidité Pression Vent Dir Rafale Dir. rafale Ensol.
Heure (°C) (mm) (%) (hPa) (km/h) (km/h) (min)
01:00 6.906010162NE6ENE0
02:00 6.606110152ENE8NO0
03:00 5.106810152ENE6NO0
04:00 4.307010152N8SE0
05:00 3.707310141SE6N0
06:00 3.607610132N6NNO0
07:00 3.607710132ESE6ESE0
08:00 3.807810122E6NO0
09:00 6.107510122E10SSE0
10:00 8.606810114S13O30
11:00 10.106410116SSE16ONO30
12:00 12.905610104NO18NO0
13:00 14.605010097NO23ONO0
14:00 17.8036100815S45SSE0
15:00 18.4034100726S63S0
16:00 18.1035100630SSE68S0
17:00 17.7037100526SSE64SSE0
18:00 18.1038100422SSE61SE0
19:00 17.7042100424SSE58SSE0
20:00 17.7042100323S53S0
21:00 18.6039100325SSE63SE0
22:00 18.8037100327S72S0
23:00 18.3039100233SSE79SSE0
minuit 18.2039100231SSE71SSE0

Graphique du 06-03-2019

 

Serveur OMMA